createdAt,value
2018-08-03T00:01:26.981Z,47.70
2018-08-03T00:03:54.663Z,47.90
2018-08-03T00:06:22.565Z,47.80
2018-08-03T00:08:50.294Z,48.10
2018-08-03T00:14:19.734Z,48.30
2018-08-03T00:16:47.330Z,48.60
2018-08-03T00:19:14.898Z,48.70
2018-08-03T00:21:45.447Z,48.60
2018-08-03T00:24:33.629Z,48.30
2018-08-03T00:29:52.893Z,48.00
2018-08-03T00:32:20.499Z,48.00
2018-08-03T00:34:48.099Z,48.00
2018-08-03T00:37:15.663Z,48.00
2018-08-03T00:39:43.286Z,48.00
2018-08-03T00:42:11.049Z,48.30
2018-08-03T00:44:38.624Z,48.20
2018-08-03T00:47:06.214Z,48.50
2018-08-03T00:49:33.822Z,48.30
2018-08-03T00:52:01.418Z,48.10
2018-08-03T00:54:28.992Z,48.30
2018-08-03T00:56:56.609Z,48.10
2018-08-03T00:59:24.159Z,48.20
2018-08-03T01:01:51.779Z,48.50
2018-08-03T01:04:19.257Z,48.70
2018-08-03T01:06:46.853Z,48.90
2018-08-03T01:09:14.386Z,48.70
2018-08-03T01:11:41.949Z,48.90
2018-08-03T01:14:10.127Z,49.10
2018-08-03T01:16:39.390Z,49.10
2018-08-03T01:19:07.581Z,49.00
2018-08-03T01:21:35.226Z,49.10
2018-08-03T01:24:03.018Z,49.10
2018-08-03T01:26:30.924Z,49.20
2018-08-03T01:28:58.599Z,49.40
2018-08-03T01:31:34.124Z,49.60
2018-08-03T01:34:09.167Z,50.30
2018-08-03T01:36:36.731Z,49.70
2018-08-03T01:39:06.641Z,50.60
2018-08-03T01:41:34.153Z,50.00
2018-08-03T01:44:01.822Z,50.00
2018-08-03T01:46:45.231Z,49.50
2018-08-03T01:49:12.923Z,50.10
2018-08-03T01:52:08.994Z,50.40
2018-08-03T01:54:36.549Z,50.70
2018-08-03T01:57:04.070Z,50.90
2018-08-03T01:59:31.669Z,51.10
2018-08-03T02:01:59.342Z,51.30
2018-08-03T02:04:26.922Z,51.40
2018-08-03T02:06:54.512Z,51.50
2018-08-03T02:09:22.071Z,51.50
2018-08-03T02:11:49.632Z,51.60
2018-08-03T02:14:22.341Z,51.90
2018-08-03T02:17:08.194Z,51.90
2018-08-03T02:19:40.378Z,51.80
2018-08-03T02:22:07.974Z,52.10
2018-08-03T02:24:35.533Z,52.00
2018-08-03T02:27:03.086Z,52.50
2018-08-03T02:29:30.599Z,52.60
2018-08-03T02:32:10.093Z,52.50
2018-08-03T02:34:37.631Z,52.40
2018-08-03T02:37:09.705Z,52.60
2018-08-03T02:39:39.805Z,52.20
2018-08-03T02:44:46.711Z,52.00
2018-08-03T02:47:14.459Z,52.20
2018-08-03T02:49:42.298Z,51.80
2018-08-03T02:52:10.302Z,52.00
2018-08-03T02:54:37.862Z,52.20
2018-08-03T02:57:05.561Z,52.20
2018-08-03T02:59:39.889Z,52.40
2018-08-03T03:02:09.107Z,52.20
2018-08-03T03:07:36.333Z,52.30
2018-08-03T03:10:09.335Z,52.50
2018-08-03T03:12:36.918Z,52.40
2018-08-03T03:15:04.960Z,52.40
2018-08-03T03:17:39.752Z,52.70
2018-08-03T03:20:25.745Z,52.50
2018-08-03T03:23:09.151Z,52.10
2018-08-03T03:25:36.917Z,51.90
2018-08-03T03:28:04.594Z,52.10
2018-08-03T03:30:32.150Z,52.20
2018-08-03T03:32:59.723Z,52.70
2018-08-03T03:35:27.376Z,52.10
2018-08-03T03:37:55.163Z,52.10
2018-08-03T03:40:22.710Z,52.20
2018-08-03T03:42:50.291Z,52.20
2018-08-03T03:45:39.108Z,52.30
2018-08-03T03:48:06.720Z,52.40
2018-08-03T03:50:34.391Z,52.10
2018-08-03T03:53:01.951Z,52.30
2018-08-03T03:55:39.591Z,52.20
2018-08-03T03:58:07.143Z,52.50
2018-08-03T04:00:34.744Z,53.00
2018-08-03T04:03:02.295Z,53.40
2018-08-03T04:05:29.896Z,53.20
2018-08-03T04:07:57.454Z,53.20
2018-08-03T04:10:25.056Z,53.80
2018-08-03T04:12:52.629Z,53.30
2018-08-03T04:15:20.230Z,53.30
2018-08-03T04:17:47.863Z,53.30
2018-08-03T04:20:15.424Z,54.00
2018-08-03T04:22:43.050Z,54.00
2018-08-03T04:25:10.692Z,54.10
2018-08-03T04:27:38.209Z,53.80
2018-08-03T04:30:06.209Z,53.20
2018-08-03T04:32:33.842Z,53.10
2018-08-03T04:35:01.426Z,53.20
2018-08-03T04:37:28.961Z,53.50
2018-08-03T04:39:56.622Z,53.00
2018-08-03T04:42:28.850Z,53.20
2018-08-03T04:44:56.399Z,53.10
2018-08-03T04:47:23.926Z,52.90
2018-08-03T04:49:51.631Z,52.70
2018-08-03T04:52:19.290Z,52.40
2018-08-03T04:54:46.979Z,52.50
2018-08-03T04:57:14.666Z,52.30
2018-08-03T05:06:19.101Z,52.10
2018-08-03T05:08:47.093Z,51.70
2018-08-03T05:11:15.216Z,51.70
2018-08-03T05:13:43.199Z,51.60
2018-08-03T05:16:15.197Z,51.30
2018-08-03T05:18:43.160Z,51.20
2018-08-03T05:21:13.158Z,51.10
2018-08-03T05:26:36.418Z,50.80
2018-08-03T05:29:04.801Z,50.40
2018-08-03T05:31:32.794Z,50.70
2018-08-03T05:34:02.435Z,50.40
2018-08-03T05:36:30.443Z,50.20
2018-08-03T05:38:58.373Z,49.80
2018-08-03T05:41:26.268Z,49.30
2018-08-03T05:43:54.625Z,49.30
2018-08-03T05:46:23.694Z,49.10
2018-08-03T05:48:51.783Z,49.20
2018-08-03T05:51:19.647Z,49.20
2018-08-03T05:53:47.574Z,48.70
2018-08-03T05:56:18.956Z,48.40
2018-08-03T05:58:48.002Z,48.20
2018-08-03T06:01:28.997Z,48.10
2018-08-03T06:03:57.109Z,48.10
2018-08-03T06:06:25.171Z,47.20
2018-08-03T06:08:54.051Z,47.40
2018-08-03T06:11:22.218Z,47.40
2018-08-03T06:13:50.616Z,47.20
2018-08-03T06:16:19.842Z,47.00
2018-08-03T06:18:47.839Z,46.80
2018-08-03T06:21:19.359Z,46.30
2018-08-03T06:23:47.301Z,46.30
2018-08-03T06:26:15.436Z,46.40
2018-08-03T06:28:43.557Z,46.20
2018-08-03T06:31:11.519Z,45.70
2018-08-03T06:33:41.137Z,44.90
2018-08-03T06:36:09.266Z,44.90
2018-08-03T06:38:37.362Z,44.80
2018-08-03T06:41:23.663Z,44.70
2018-08-03T06:43:51.147Z,44.10
2018-08-03T06:46:19.088Z,44.70
2018-08-03T06:48:46.604Z,43.90
2018-08-03T06:51:14.280Z,43.80
2018-08-03T06:53:41.872Z,43.20
2018-08-03T06:56:09.447Z,43.20
2018-08-03T06:58:37.629Z,43.20
2018-08-03T07:01:06.778Z,43.20
2018-08-03T07:03:34.364Z,43.20
2018-08-03T07:06:01.954Z,42.50
2018-08-03T07:08:29.866Z,42.50
2018-08-03T07:10:57.394Z,42.40
2018-08-03T07:13:24.988Z,41.30
2018-08-03T07:15:53.393Z,41.80
2018-08-03T07:18:21.134Z,41.10
2018-08-03T07:20:48.920Z,41.10
2018-08-03T07:23:16.491Z,40.70
2018-08-03T07:25:44.058Z,40.00
2018-08-03T07:28:11.723Z,40.00
2018-08-03T07:30:39.342Z,39.50
2018-08-03T07:33:06.984Z,39.00
2018-08-03T07:35:34.659Z,39.10
2018-08-03T07:38:02.331Z,38.50
2018-08-03T07:40:29.890Z,37.70
2018-08-03T07:42:57.727Z,37.50
2018-08-03T07:45:25.210Z,37.60
2018-08-03T07:47:52.700Z,37.60
2018-08-03T07:50:20.302Z,37.60
2018-08-03T07:52:47.811Z,37.70
2018-08-03T07:55:15.463Z,36.70
2018-08-03T07:57:43.157Z,36.80
2018-08-03T08:00:10.761Z,36.20
2018-08-03T08:02:38.497Z,36.20
2018-08-03T08:05:06.397Z,35.70
2018-08-03T08:07:34.023Z,36.40
2018-08-03T08:10:01.608Z,35.30
2018-08-03T08:12:29.227Z,35.50
2018-08-03T08:14:57.115Z,35.10
2018-08-03T08:17:24.747Z,35.10
2018-08-03T08:19:53.016Z,34.40
2018-08-03T08:22:22.269Z,33.60
2018-08-03T08:24:51.439Z,34.10
2018-08-03T08:27:19.188Z,33.10
2018-08-03T08:29:46.967Z,34.00
2018-08-03T08:32:14.758Z,33.10
2018-08-03T08:34:42.458Z,33.00
2018-08-03T08:37:18.453Z,33.20
2018-08-03T08:39:46.618Z,32.50
2018-08-03T08:42:14.431Z,31.90
2018-08-03T08:44:42.132Z,32.10
2018-08-03T08:47:10.191Z,31.70
2018-08-03T08:49:38.320Z,31.30
2018-08-03T08:52:06.132Z,31.40
2018-08-03T08:54:33.988Z,31.90
2018-08-03T08:57:01.699Z,31.30
2018-08-03T08:59:29.324Z,30.40
2018-08-03T09:01:56.935Z,31.10
2018-08-03T09:04:24.523Z,29.90
2018-08-03T09:06:52.224Z,30.40
2018-08-03T09:09:19.778Z,29.50
2018-08-03T09:11:47.371Z,29.10
2018-08-03T09:14:16.479Z,29.70
2018-08-03T09:16:44.360Z,29.60
2018-08-03T09:19:12.199Z,29.10
2018-08-03T09:21:40.556Z,29.00
2018-08-03T09:24:08.908Z,29.10
2018-08-03T09:26:36.067Z,29.10
2018-08-03T09:29:03.692Z,29.20
2018-08-03T09:31:31.314Z,28.70
2018-08-03T09:33:58.969Z,28.00
2018-08-03T09:36:30.108Z,28.10
2018-08-03T09:38:57.750Z,28.30
2018-08-03T09:41:25.430Z,27.90
2018-08-03T09:43:52.719Z,28.10
2018-08-03T09:46:20.419Z,27.80
2018-08-03T09:48:48.065Z,26.70
2018-08-03T09:51:22.492Z,27.50
2018-08-03T09:53:50.339Z,28.00
2018-08-03T09:56:17.957Z,27.30
2018-08-03T09:58:45.617Z,26.70
2018-08-03T10:01:13.332Z,26.90
2018-08-03T10:03:42.108Z,27.20
2018-08-03T10:06:11.111Z,25.50
2018-08-03T10:08:39.310Z,25.70
2018-08-03T10:11:07.440Z,26.70
2018-08-03T10:13:35.114Z,25.30
2018-08-03T10:16:03.939Z,25.60
2018-08-03T10:18:31.582Z,25.20
2018-08-03T10:20:59.255Z,24.40
2018-08-03T10:23:26.875Z,24.00
2018-08-03T10:25:54.479Z,22.80
2018-08-03T10:28:22.340Z,23.20
2018-08-03T10:30:50.081Z,23.40
2018-08-03T10:33:18.698Z,22.80
2018-08-03T10:35:47.736Z,22.50
2018-08-03T10:38:15.880Z,21.80
2018-08-03T10:40:43.497Z,22.20
2018-08-03T10:43:11.205Z,21.90
2018-08-03T10:45:41.408Z,22.00
2018-08-03T10:48:12.116Z,21.40
2018-08-03T10:50:40.287Z,21.80
2018-08-03T10:53:17.125Z,20.80
2018-08-03T10:55:44.738Z,21.40
2018-08-03T10:58:12.418Z,21.20
2018-08-03T11:00:40.317Z,20.10
2018-08-03T11:03:07.900Z,19.90
2018-08-03T11:05:35.481Z,20.50
2018-08-03T11:08:03.172Z,19.80
2018-08-03T11:10:30.855Z,19.90
2018-08-03T11:12:58.524Z,19.20
2018-08-03T11:15:26.179Z,20.20
2018-08-03T11:17:53.852Z,19.30
2018-08-03T11:20:21.473Z,19.60
2018-08-03T11:22:49.167Z,18.30
2018-08-03T11:25:16.814Z,18.20
2018-08-03T11:27:45.187Z,18.40
2018-08-03T11:30:12.848Z,18.40
2018-08-03T11:32:40.440Z,20.00
2018-08-03T11:35:09.051Z,18.60
2018-08-03T11:37:36.711Z,18.10
2018-08-03T11:40:04.748Z,18.80
2018-08-03T11:42:32.368Z,17.60
2018-08-03T11:45:00.384Z,17.90
2018-08-03T11:47:28.069Z,18.60
2018-08-03T11:49:55.550Z,17.80
2018-08-03T11:52:22.647Z,17.80
2018-08-03T11:54:50.294Z,17.10
2018-08-03T11:57:17.809Z,16.10
2018-08-03T11:59:45.434Z,16.00
2018-08-03T12:02:13.248Z,15.00
2018-08-03T12:04:40.752Z,15.10
2018-08-03T12:07:11.133Z,15.20
2018-08-03T12:09:38.780Z,14.70
2018-08-03T12:12:06.558Z,13.60
2018-08-03T12:14:34.150Z,13.40
2018-08-03T12:17:01.827Z,12.80
2018-08-03T12:19:29.459Z,13.40
2018-08-03T12:21:57.624Z,13.20
2018-08-03T12:24:24.618Z,12.80
2018-08-03T12:26:51.605Z,13.00
2018-08-03T12:29:20.256Z,12.40
2018-08-03T12:31:48.347Z,12.00
2018-08-03T12:34:16.183Z,12.50
2018-08-03T12:36:43.845Z,11.90
2018-08-03T12:39:11.635Z,11.80
2018-08-03T12:41:39.207Z,12.80
2018-08-03T12:44:07.020Z,12.10
2018-08-03T12:46:35.040Z,11.90
2018-08-03T12:49:03.155Z,13.10
2018-08-03T12:51:31.099Z,12.00
2018-08-03T12:53:59.206Z,12.10
2018-08-03T12:56:26.851Z,11.60
2018-08-03T12:58:54.434Z,11.90
2018-08-03T13:01:22.892Z,11.30
2018-08-03T13:03:50.886Z,10.90
2018-08-03T13:06:18.718Z,11.60
2018-08-03T13:08:46.303Z,9.80
2018-08-03T13:11:13.862Z,9.70
2018-08-03T13:13:54.776Z,9.50
2018-08-03T13:16:22.381Z,10.30
2018-08-03T13:18:49.459Z,10.40
2018-08-03T13:21:22.247Z,11.40
2018-08-03T13:23:52.279Z,10.90
2018-08-03T13:26:19.270Z,9.90
2018-08-03T13:28:52.449Z,9.80
2018-08-03T13:31:19.791Z,9.70
2018-08-03T13:36:29.995Z,8.60
2018-08-03T13:38:59.132Z,8.70
2018-08-03T13:41:26.138Z,8.20
2018-08-03T13:43:53.247Z,9.10
2018-08-03T13:46:20.302Z,8.80
2018-08-03T13:48:47.993Z,9.10
2018-08-03T13:51:17.592Z,8.20
2018-08-03T13:53:45.467Z,8.60
2018-08-03T13:56:13.070Z,9.00
2018-08-03T13:58:44.033Z,8.80
2018-08-03T14:01:16.752Z,8.50
2018-08-03T14:03:43.826Z,9.00
2018-08-03T14:06:10.813Z,8.20
2018-08-03T14:08:38.311Z,9.00
2018-08-03T14:11:05.313Z,8.30
2018-08-03T14:13:32.496Z,9.00
2018-08-03T14:15:59.462Z,9.30
2018-08-03T14:18:26.450Z,9.90
2018-08-03T14:20:53.471Z,10.10
2018-08-03T14:23:20.462Z,10.00
2018-08-03T14:25:47.467Z,10.60
2018-08-03T14:28:14.652Z,10.10
2018-08-03T14:30:41.744Z,10.70
2018-08-03T14:33:08.870Z,10.80
2018-08-03T14:35:35.945Z,11.10
2018-08-03T14:38:02.933Z,11.20
2018-08-03T14:40:30.083Z,11.00
2018-08-03T14:42:58.648Z,11.50
2018-08-03T14:45:25.721Z,11.10
2018-08-03T14:47:55.701Z,11.80
2018-08-03T14:50:22.782Z,11.70
2018-08-03T14:52:49.861Z,12.20
2018-08-03T14:55:17.268Z,11.90
2018-08-03T14:57:44.411Z,11.70
2018-08-03T15:00:11.708Z,11.90
2018-08-03T15:02:39.030Z,12.00
2018-08-03T15:05:06.304Z,11.80
2018-08-03T15:07:33.466Z,11.60
2018-08-03T15:10:00.489Z,11.70
2018-08-03T15:12:27.686Z,11.70
2018-08-03T15:14:54.722Z,12.00
2018-08-03T15:17:21.819Z,11.90
2018-08-03T15:19:50.699Z,12.30
2018-08-03T15:22:18.309Z,11.80
2018-08-03T15:24:45.985Z,11.60
2018-08-03T15:27:13.067Z,11.70
2018-08-03T15:29:40.219Z,11.70
2018-08-03T15:32:07.243Z,11.30
2018-08-03T15:34:34.351Z,10.80
2018-08-03T15:37:01.387Z,11.50
2018-08-03T15:39:28.415Z,11.50
2018-08-03T15:41:55.922Z,11.40
2018-08-03T15:44:23.159Z,11.20
2018-08-03T15:46:50.147Z,11.80
2018-08-03T15:49:17.835Z,11.10
2018-08-03T15:51:44.930Z,11.20
2018-08-03T15:54:11.936Z,11.40
2018-08-03T15:56:39.004Z,11.20
2018-08-03T15:59:06.582Z,11.10
2018-08-03T16:01:33.565Z,11.20
2018-08-03T16:04:01.847Z,10.90
2018-08-03T16:06:28.946Z,11.60
2018-08-03T16:08:56.038Z,12.00
2018-08-03T16:11:23.036Z,11.50
2018-08-03T16:13:50.059Z,11.70
2018-08-03T16:16:17.890Z,11.50
2018-08-03T16:18:45.080Z,11.70
2018-08-03T16:21:12.590Z,12.10
2018-08-03T16:23:39.609Z,11.70
2018-08-03T16:26:06.716Z,11.50
2018-08-03T16:28:33.835Z,11.60
2018-08-03T16:31:00.865Z,11.70
2018-08-03T16:33:27.996Z,12.10
2018-08-03T16:35:55.048Z,11.80
2018-08-03T16:38:22.181Z,11.90
2018-08-03T16:40:49.264Z,11.20
2018-08-03T16:43:16.887Z,11.60
2018-08-03T16:45:44.617Z,11.30
2018-08-03T16:48:15.015Z,11.20
2018-08-03T16:50:42.798Z,11.60
2018-08-03T16:53:10.531Z,11.60
2018-08-03T16:55:38.308Z,11.70
2018-08-03T16:58:06.384Z,11.60
2018-08-03T17:00:34.100Z,11.30
2018-08-03T17:03:02.387Z,11.70
2018-08-03T17:05:30.131Z,11.50
2018-08-03T17:07:58.808Z,11.10
2018-08-03T17:10:27.167Z,12.00
2018-08-03T17:12:54.752Z,11.40
2018-08-03T17:15:22.384Z,11.70
2018-08-03T17:17:49.989Z,11.70
2018-08-03T17:20:18.471Z,12.10
2018-08-03T17:22:46.157Z,12.50
2018-08-03T17:25:13.807Z,11.70
2018-08-03T17:27:41.455Z,12.60
2018-08-03T17:30:09.139Z,12.20
2018-08-03T17:32:36.863Z,12.30
2018-08-03T17:35:04.558Z,12.30
2018-08-03T17:37:32.285Z,12.20
2018-08-03T17:40:00.005Z,12.30
2018-08-03T17:42:27.815Z,12.40
2018-08-03T17:44:55.735Z,12.20
2018-08-03T17:47:23.522Z,12.90
2018-08-03T17:49:51.295Z,12.60
2018-08-03T17:52:19.216Z,13.10
2018-08-03T17:54:47.406Z,12.30
2018-08-03T17:57:15.274Z,12.80
2018-08-03T17:59:43.085Z,14.20
2018-08-03T18:02:10.629Z,12.60
2018-08-03T18:04:38.221Z,12.90
2018-08-03T18:07:06.059Z,12.80
2018-08-03T18:09:33.736Z,13.00
2018-08-03T18:12:00.630Z,12.80
2018-08-03T18:14:28.921Z,13.80
2018-08-03T18:16:56.648Z,13.40
2018-08-03T18:19:24.274Z,13.40
2018-08-03T18:21:51.366Z,13.30
2018-08-03T18:24:19.074Z,14.40
2018-08-03T18:26:46.837Z,14.50
2018-08-03T18:29:14.165Z,14.90
2018-08-03T18:31:41.156Z,15.10
2018-08-03T18:34:08.835Z,15.10
2018-08-03T18:36:36.799Z,15.20
2018-08-03T18:39:05.690Z,15.40
2018-08-03T18:41:32.920Z,16.20
2018-08-03T18:44:00.082Z,16.60
2018-08-03T18:46:27.167Z,16.20
2018-08-03T18:48:54.085Z,17.00
2018-08-03T18:51:21.934Z,17.30
2018-08-03T18:53:49.478Z,18.10
2018-08-03T18:56:17.036Z,17.00
2018-08-03T18:58:44.610Z,18.00
2018-08-03T19:01:12.310Z,17.90
2018-08-03T19:03:39.889Z,17.90
2018-08-03T19:06:09.498Z,18.30
2018-08-03T19:08:37.048Z,18.20
2018-08-03T19:11:04.688Z,18.70
2018-08-03T19:13:32.238Z,19.30
2018-08-03T19:15:59.947Z,19.60
2018-08-03T19:18:27.600Z,19.70
2018-08-03T19:20:55.278Z,20.10
2018-08-03T19:23:22.886Z,20.70
2018-08-03T19:25:50.754Z,20.70
2018-08-03T19:28:19.764Z,20.60
2018-08-03T19:30:49.606Z,20.60
2018-08-03T19:33:17.194Z,20.50
2018-08-03T19:35:44.959Z,20.80
2018-08-03T19:38:12.537Z,21.40
2018-08-03T19:40:40.259Z,21.80
2018-08-03T19:43:07.871Z,22.00
2018-08-03T19:45:35.635Z,22.00
2018-08-03T19:48:03.334Z,22.30
2018-08-03T19:50:31.038Z,22.30
2018-08-03T19:52:58.665Z,22.40
2018-08-03T19:55:26.403Z,22.80
2018-08-03T19:57:53.991Z,22.90
2018-08-03T20:00:21.626Z,23.00
2018-08-03T20:02:49.236Z,23.00
2018-08-03T20:05:17.263Z,23.40
2018-08-03T20:07:45.845Z,24.00
2018-08-03T20:10:13.387Z,24.10
2018-08-03T20:12:40.951Z,24.00
2018-08-03T20:15:08.752Z,24.30
2018-08-03T20:17:36.411Z,24.20
2018-08-03T20:20:04.075Z,24.70
2018-08-03T20:22:31.755Z,25.20
2018-08-03T20:24:59.475Z,25.80
2018-08-03T20:27:27.208Z,25.90
2018-08-03T20:29:54.801Z,25.40
2018-08-03T20:32:22.387Z,25.70
2018-08-03T20:34:50.061Z,26.10
2018-08-03T20:37:17.738Z,26.00
2018-08-03T20:39:45.604Z,25.90
2018-08-03T20:42:13.225Z,26.60
2018-08-03T20:44:42.018Z,26.40
2018-08-03T20:47:09.757Z,26.40
2018-08-03T20:49:37.349Z,26.90
2018-08-03T20:52:05.276Z,27.20
2018-08-03T20:54:32.867Z,27.30
2018-08-03T20:57:00.556Z,27.30
2018-08-03T20:59:28.090Z,27.40
2018-08-03T21:01:56.354Z,27.70
2018-08-03T21:04:23.974Z,27.30
2018-08-03T21:06:51.718Z,27.20
2018-08-03T21:09:19.363Z,27.20
2018-08-03T21:11:47.177Z,27.20
2018-08-03T21:14:14.897Z,27.20
2018-08-03T21:16:42.555Z,27.10
2018-08-03T21:19:10.229Z,27.10
2018-08-03T21:21:40.128Z,27.60
2018-08-03T21:24:09.105Z,28.10
2018-08-03T21:26:37.072Z,27.40
2018-08-03T21:29:04.996Z,28.00
2018-08-03T21:31:33.710Z,28.10
2018-08-03T21:34:01.333Z,28.30
2018-08-03T21:36:29.101Z,28.10
2018-08-03T21:38:56.670Z,28.30
2018-08-03T21:41:24.259Z,28.10
2018-08-03T21:43:51.411Z,28.70
2018-08-03T21:46:18.657Z,28.40
2018-08-03T21:48:45.675Z,28.70
2018-08-03T21:51:13.234Z,29.20
2018-08-03T21:53:40.807Z,29.10
2018-08-03T21:56:08.494Z,29.50
2018-08-03T21:58:35.777Z,29.10
2018-08-03T22:01:02.862Z,29.20
2018-08-03T22:03:29.907Z,29.20
2018-08-03T22:05:56.941Z,29.10
2018-08-03T22:08:25.378Z,29.20
2018-08-03T22:10:52.454Z,29.30
2018-08-03T22:13:19.763Z,29.30
2018-08-03T22:15:46.754Z,29.10
2018-08-03T22:18:13.817Z,29.30
2018-08-03T22:20:40.937Z,29.40
2018-08-03T22:23:08.011Z,30.20
2018-08-03T22:25:35.039Z,29.60
2018-08-03T22:28:02.146Z,29.80
2018-08-03T22:30:29.202Z,29.60
2018-08-03T22:32:56.250Z,29.60
2018-08-03T22:35:23.260Z,29.90
2018-08-03T22:37:51.309Z,29.60
2018-08-03T22:40:18.517Z,29.70
2018-08-03T22:42:45.644Z,29.20
2018-08-03T22:45:12.590Z,29.70
2018-08-03T22:47:39.682Z,28.80
2018-08-03T22:50:06.785Z,30.00
2018-08-03T22:52:34.778Z,29.50
2018-08-03T22:55:02.500Z,29.10
2018-08-03T22:57:30.067Z,29.60
2018-08-03T22:59:58.715Z,29.70
2018-08-03T23:02:26.760Z,30.00
2018-08-03T23:04:54.543Z,29.10
2018-08-03T23:07:22.207Z,29.80
2018-08-03T23:09:49.797Z,30.20
2018-08-03T23:12:17.939Z,30.10
2018-08-03T23:14:45.547Z,30.20
2018-08-03T23:17:13.173Z,30.00
2018-08-03T23:19:40.954Z,29.90
2018-08-03T23:22:08.716Z,30.00
2018-08-03T23:24:36.864Z,30.30
2018-08-03T23:27:05.081Z,30.70
2018-08-03T23:29:32.691Z,30.00
2018-08-03T23:32:00.287Z,30.60
2018-08-03T23:34:27.936Z,30.60
2018-08-03T23:36:55.744Z,30.70
2018-08-03T23:39:23.444Z,30.70
2018-08-03T23:41:51.302Z,30.70
2018-08-03T23:44:19.227Z,30.30
2018-08-03T23:46:46.855Z,30.50
2018-08-03T23:49:15.025Z,30.60
2018-08-03T23:51:42.616Z,30.60
2018-08-03T23:54:10.231Z,30.60
2018-08-03T23:56:37.863Z,31.10
2018-08-03T23:59:04.955Z,31.50
